sensor_id;sensor_type;location;lat;lon;timestamp;pressure;altitude;pressure_sealevel;temperature
19666;BMP180;9980;51.020;7.772;2023-07-13T00:02:18;97528.00;;;21.40
19666;BMP180;9980;51.020;7.772;2023-07-13T00:04:46;97518.00;;;21.30
19666;BMP180;9980;51.020;7.772;2023-07-13T00:07:13;97529.00;;;21.20
19666;BMP180;9980;51.020;7.772;2023-07-13T00:09:41;97527.00;;;21.20
19666;BMP180;9980;51.020;7.772;2023-07-13T00:12:31;97533.00;;;21.10
19666;BMP180;9980;51.020;7.772;2023-07-13T00:15:01;97526.00;;;21.10
19666;BMP180;9980;51.020;7.772;2023-07-13T00:17:29;97532.00;;;21.00
19666;BMP180;9980;51.020;7.772;2023-07-13T00:19:57;97534.00;;;21.00
19666;BMP180;9980;51.020;7.772;2023-07-13T00:22:25;97534.00;;;21.00
19666;BMP180;9980;51.020;7.772;2023-07-13T00:24:54;97537.00;;;20.90
19666;BMP180;9980;51.020;7.772;2023-07-13T00:27:25;97532.00;;;20.80
19666;BMP180;9980;51.020;7.772;2023-07-13T00:29:53;97534.00;;;20.80
19666;BMP180;9980;51.020;7.772;2023-07-13T00:32:20;97520.00;;;20.70
19666;BMP180;9980;51.020;7.772;2023-07-13T00:34:47;97529.00;;;20.70
19666;BMP180;9980;51.020;7.772;2023-07-13T00:37:14;97538.00;;;20.60
19666;BMP180;9980;51.020;7.772;2023-07-13T00:39:41;97532.00;;;20.60
19666;BMP180;9980;51.020;7.772;2023-07-13T00:42:09;97526.00;;;20.50
19666;BMP180;9980;51.020;7.772;2023-07-13T00:44:36;97528.00;;;20.50
19666;BMP180;9980;51.020;7.772;2023-07-13T00:47:03;97518.00;;;20.40
19666;BMP180;9980;51.020;7.772;2023-07-13T00:49:32;97511.00;;;20.30
19666;BMP180;9980;51.020;7.772;2023-07-13T00:52:06;97505.00;;;20.20
19666;BMP180;9980;51.020;7.772;2023-07-13T00:54:40;97521.00;;;20.20
19666;BMP180;9980;51.020;7.772;2023-07-13T00:57:14;97530.00;;;20.10
19666;BMP180;9980;51.020;7.772;2023-07-13T00:59:47;97523.00;;;20.10
19666;BMP180;9980;51.020;7.772;2023-07-13T01:02:15;97523.00;;;20.00
19666;BMP180;9980;51.020;7.772;2023-07-13T01:04:43;97511.00;;;20.00
19666;BMP180;9980;51.020;7.772;2023-07-13T01:07:11;97499.00;;;19.90
19666;BMP180;9980;51.020;7.772;2023-07-13T01:09:39;97515.00;;;19.90
19666;BMP180;9980;51.020;7.772;2023-07-13T01:12:07;97513.00;;;19.80
19666;BMP180;9980;51.020;7.772;2023-07-13T01:14:34;97530.00;;;19.80
19666;BMP180;9980;51.020;7.772;2023-07-13T01:17:01;97526.00;;;19.70
19666;BMP180;9980;51.020;7.772;2023-07-13T01:19:39;97519.00;;;19.60
19666;BMP180;9980;51.020;7.772;2023-07-13T01:22:13;97533.00;;;19.60
19666;BMP180;9980;51.020;7.772;2023-07-13T01:24:45;97522.00;;;19.50
19666;BMP180;9980;51.020;7.772;2023-07-13T01:27:17;97525.00;;;19.50
19666;BMP180;9980;51.020;7.772;2023-07-13T01:29:45;97522.00;;;19.40
19666;BMP180;9980;51.020;7.772;2023-07-13T01:32:18;97524.00;;;19.40
19666;BMP180;9980;51.020;7.772;2023-07-13T01:34:53;97532.00;;;19.30
19666;BMP180;9980;51.020;7.772;2023-07-13T01:37:23;97521.00;;;19.20
19666;BMP180;9980;51.020;7.772;2023-07-13T01:39:51;97525.00;;;19.20
19666;BMP180;9980;51.020;7.772;2023-07-13T01:42:18;97521.00;;;19.20
19666;BMP180;9980;51.020;7.772;2023-07-13T01:44:47;97511.00;;;19.10
19666;BMP180;9980;51.020;7.772;2023-07-13T01:47:14;97520.00;;;19.00
19666;BMP180;9980;51.020;7.772;2023-07-13T01:49:41;97524.00;;;19.00
19666;BMP180;9980;51.020;7.772;2023-07-13T01:52:08;97527.00;;;18.90
19666;BMP180;9980;51.020;7.772;2023-07-13T01:54:35;97519.00;;;18.90
19666;BMP180;9980;51.020;7.772;2023-07-13T01:57:02;97516.00;;;18.80
19666;BMP180;9980;51.020;7.772;2023-07-13T01:59:30;97516.00;;;18.80
19666;BMP180;9980;51.020;7.772;2023-07-13T02:01:57;97519.00;;;18.70
19666;BMP180;9980;51.020;7.772;2023-07-13T02:04:24;97524.00;;;18.70
19666;BMP180;9980;51.020;7.772;2023-07-13T02:06:51;97518.00;;;18.60
19666;BMP180;9980;51.020;7.772;2023-07-13T02:09:18;97520.00;;;18.50
19666;BMP180;9980;51.020;7.772;2023-07-13T02:11:45;97518.00;;;18.50
19666;BMP180;9980;51.020;7.772;2023-07-13T02:14:12;97512.00;;;18.40
19666;BMP180;9980;51.020;7.772;2023-07-13T02:16:39;97501.00;;;18.40
19666;BMP180;9980;51.020;7.772;2023-07-13T02:19:06;97511.00;;;18.30
19666;BMP180;9980;51.020;7.772;2023-07-13T02:21:33;97505.00;;;18.30
19666;BMP180;9980;51.020;7.772;2023-07-13T02:24:00;97498.00;;;18.20
19666;BMP180;9980;51.020;7.772;2023-07-13T02:26:27;97504.00;;;18.20
19666;BMP180;9980;51.020;7.772;2023-07-13T02:28:54;97517.00;;;18.10
19666;BMP180;9980;51.020;7.772;2023-07-13T02:31:21;97513.00;;;18.10
19666;BMP180;9980;51.020;7.772;2023-07-13T02:33:48;97516.00;;;18.00
19666;BMP180;9980;51.020;7.772;2023-07-13T02:36:17;97514.00;;;18.00
19666;BMP180;9980;51.020;7.772;2023-07-13T02:38:45;97509.00;;;17.90
19666;BMP180;9980;51.020;7.772;2023-07-13T02:41:12;97518.00;;;17.90
19666;BMP180;9980;51.020;7.772;2023-07-13T02:43:40;97517.00;;;17.80
19666;BMP180;9980;51.020;7.772;2023-07-13T02:46:08;97503.00;;;17.80
19666;BMP180;9980;51.020;7.772;2023-07-13T02:48:38;97503.00;;;17.70
19666;BMP180;9980;51.020;7.772;2023-07-13T02:51:07;97503.00;;;17.70
19666;BMP180;9980;51.020;7.772;2023-07-13T02:53:34;97499.00;;;17.70
19666;BMP180;9980;51.020;7.772;2023-07-13T02:56:04;97495.00;;;17.60
19666;BMP180;9980;51.020;7.772;2023-07-13T02:58:31;97492.00;;;17.60
19666;BMP180;9980;51.020;7.772;2023-07-13T03:01:06;97509.00;;;17.50
19666;BMP180;9980;51.020;7.772;2023-07-13T03:03:34;97509.00;;;17.50
19666;BMP180;9980;51.020;7.772;2023-07-13T03:06:02;97510.00;;;17.40
19666;BMP180;9980;51.020;7.772;2023-07-13T03:08:36;97514.00;;;17.40
19666;BMP180;9980;51.020;7.772;2023-07-13T03:11:14;97513.00;;;17.30
19666;BMP180;9980;51.020;7.772;2023-07-13T03:13:43;97514.00;;;17.30
19666;BMP180;9980;51.020;7.772;2023-07-13T03:16:11;97519.00;;;17.20
19666;BMP180;9980;51.020;7.772;2023-07-13T03:18:42;97519.00;;;17.20
19666;BMP180;9980;51.020;7.772;2023-07-13T03:21:11;97518.00;;;17.20
19666;BMP180;9980;51.020;7.772;2023-07-13T03:23:39;97535.00;;;17.10
19666;BMP180;9980;51.020;7.772;2023-07-13T03:26:13;97541.00;;;17.10
19666;BMP180;9980;51.020;7.772;2023-07-13T03:28:42;97533.00;;;17.10
19666;BMP180;9980;51.020;7.772;2023-07-13T03:31:19;97542.00;;;17.00
19666;BMP180;9980;51.020;7.772;2023-07-13T03:33:48;97528.00;;;17.00
19666;BMP180;9980;51.020;7.772;2023-07-13T03:36:20;97535.00;;;17.00
19666;BMP180;9980;51.020;7.772;2023-07-13T03:38:57;97539.00;;;17.00
19666;BMP180;9980;51.020;7.772;2023-07-13T03:41:31;97539.00;;;16.90
19666;BMP180;9980;51.020;7.772;2023-07-13T03:43:58;97537.00;;;16.90
19666;BMP180;9980;51.020;7.772;2023-07-13T03:46:26;97535.00;;;16.90
19666;BMP180;9980;51.020;7.772;2023-07-13T03:48:54;97546.00;;;16.90
19666;BMP180;9980;51.020;7.772;2023-07-13T03:51:21;97545.00;;;16.90
19666;BMP180;9980;51.020;7.772;2023-07-13T03:53:48;97548.00;;;16.80
19666;BMP180;9980;51.020;7.772;2023-07-13T03:56:19;97552.00;;;16.80
19666;BMP180;9980;51.020;7.772;2023-07-13T03:58:49;97553.00;;;16.80
19666;BMP180;9980;51.020;7.772;2023-07-13T04:01:21;97541.00;;;16.80
19666;BMP180;9980;51.020;7.772;2023-07-13T04:03:48;97532.00;;;16.80
19666;BMP180;9980;51.020;7.772;2023-07-13T04:06:19;97538.00;;;16.80
19666;BMP180;9980;51.020;7.772;2023-07-13T04:08:56;97541.00;;;16.80
19666;BMP180;9980;51.020;7.772;2023-07-13T04:11:26;97544.00;;;16.80
19666;BMP180;9980;51.020;7.772;2023-07-13T04:13:55;97546.00;;;16.80
19666;BMP180;9980;51.020;7.772;2023-07-13T04:16:23;97548.00;;;16.80
19666;BMP180;9980;51.020;7.772;2023-07-13T04:18:51;97555.00;;;16.80
19666;BMP180;9980;51.020;7.772;2023-07-13T04:21:21;97562.00;;;16.80
19666;BMP180;9980;51.020;7.772;2023-07-13T04:23:49;97540.00;;;16.80
19666;BMP180;9980;51.020;7.772;2023-07-13T04:26:16;97551.00;;;16.80
19666;BMP180;9980;51.020;7.772;2023-07-13T04:28:42;97552.00;;;16.80
19666;BMP180;9980;51.020;7.772;2023-07-13T04:31:09;97559.00;;;16.80
19666;BMP180;9980;51.020;7.772;2023-07-13T04:33:37;97559.00;;;16.80
19666;BMP180;9980;51.020;7.772;2023-07-13T04:36:04;97555.00;;;16.80
19666;BMP180;9980;51.020;7.772;2023-07-13T04:38:32;97569.00;;;16.80
19666;BMP180;9980;51.020;7.772;2023-07-13T04:41:03;97560.00;;;16.80
19666;BMP180;9980;51.020;7.772;2023-07-13T04:43:32;97554.00;;;16.90
19666;BMP180;9980;51.020;7.772;2023-07-13T04:46:07;97551.00;;;16.90
19666;BMP180;9980;51.020;7.772;2023-07-13T04:48:34;97550.00;;;16.90
19666;BMP180;9980;51.020;7.772;2023-07-13T04:51:02;97550.00;;;17.00
19666;BMP180;9980;51.020;7.772;2023-07-13T04:53:30;97552.00;;;17.20
19666;BMP180;9980;51.020;7.772;2023-07-13T04:55:57;97554.00;;;17.30
19666;BMP180;9980;51.020;7.772;2023-07-13T04:58:25;97559.00;;;17.40
19666;BMP180;9980;51.020;7.772;2023-07-13T05:00:53;97561.00;;;17.60
19666;BMP180;9980;51.020;7.772;2023-07-13T05:03:25;97563.00;;;17.70
19666;BMP180;9980;51.020;7.772;2023-07-13T05:06:02;97568.00;;;17.80
19666;BMP180;9980;51.020;7.772;2023-07-13T05:08:29;97560.00;;;18.00
19666;BMP180;9980;51.020;7.772;2023-07-13T05:10:56;97573.00;;;18.10
19666;BMP180;9980;51.020;7.772;2023-07-13T05:13:23;97580.00;;;18.20
19666;BMP180;9980;51.020;7.772;2023-07-13T05:16:00;97572.00;;;18.30
19666;BMP180;9980;51.020;7.772;2023-07-13T05:18:29;97578.00;;;18.40
19666;BMP180;9980;51.020;7.772;2023-07-13T05:21:02;97582.00;;;18.50
19666;BMP180;9980;51.020;7.772;2023-07-13T05:23:31;97589.00;;;18.60
19666;BMP180;9980;51.020;7.772;2023-07-13T05:26:02;97575.00;;;18.70
19666;BMP180;9980;51.020;7.772;2023-07-13T05:28:34;97584.00;;;18.80
19666;BMP180;9980;51.020;7.772;2023-07-13T05:31:01;97592.00;;;18.90
19666;BMP180;9980;51.020;7.772;2023-07-13T05:33:28;97577.00;;;19.00
19666;BMP180;9980;51.020;7.772;2023-07-13T05:35:55;97593.00;;;19.10
19666;BMP180;9980;51.020;7.772;2023-07-13T05:38:25;97586.00;;;19.10
19666;BMP180;9980;51.020;7.772;2023-07-13T05:40:54;97578.00;;;19.20
19666;BMP180;9980;51.020;7.772;2023-07-13T05:43:22;97592.00;;;19.30
19666;BMP180;9980;51.020;7.772;2023-07-13T05:45:53;97581.00;;;19.40
19666;BMP180;9980;51.020;7.772;2023-07-13T05:48:20;97589.00;;;19.50
19666;BMP180;9980;51.020;7.772;2023-07-13T05:50:48;97593.00;;;19.60
19666;BMP180;9980;51.020;7.772;2023-07-13T05:53:15;97582.00;;;19.60
19666;BMP180;9980;51.020;7.772;2023-07-13T05:55:47;97587.00;;;19.70
19666;BMP180;9980;51.020;7.772;2023-07-13T05:58:17;97586.00;;;19.80
19666;BMP180;9980;51.020;7.772;2023-07-13T06:00:45;97605.00;;;19.80
19666;BMP180;9980;51.020;7.772;2023-07-13T06:03:12;97581.00;;;19.90
19666;BMP180;9980;51.020;7.772;2023-07-13T06:05:39;97584.00;;;20.00
19666;BMP180;9980;51.020;7.772;2023-07-13T06:08:07;97591.00;;;20.00
19666;BMP180;9980;51.020;7.772;2023-07-13T06:10:36;97612.00;;;20.10
19666;BMP180;9980;51.020;7.772;2023-07-13T06:13:03;97602.00;;;20.20
19666;BMP180;9980;51.020;7.772;2023-07-13T06:15:30;97606.00;;;20.30
19666;BMP180;9980;51.020;7.772;2023-07-13T06:17:57;97606.00;;;20.30
19666;BMP180;9980;51.020;7.772;2023-07-13T06:20:24;97609.00;;;20.40
19666;BMP180;9980;51.020;7.772;2023-07-13T06:22:52;97613.00;;;20.40
19666;BMP180;9980;51.020;7.772;2023-07-13T06:25:19;97603.00;;;20.50
19666;BMP180;9980;51.020;7.772;2023-07-13T06:27:46;97604.00;;;20.60
19666;BMP180;9980;51.020;7.772;2023-07-13T06:30:13;97611.00;;;20.60
19666;BMP180;9980;51.020;7.772;2023-07-13T06:32:40;97607.00;;;20.70
19666;BMP180;9980;51.020;7.772;2023-07-13T06:35:08;97619.00;;;20.70
19666;BMP180;9980;51.020;7.772;2023-07-13T06:37:35;97613.00;;;20.80
19666;BMP180;9980;51.020;7.772;2023-07-13T06:40:02;97607.00;;;20.80
19666;BMP180;9980;51.020;7.772;2023-07-13T06:42:30;97618.00;;;20.90
19666;BMP180;9980;51.020;7.772;2023-07-13T06:44:57;97624.00;;;21.00
19666;BMP180;9980;51.020;7.772;2023-07-13T06:47:24;97627.00;;;21.10
19666;BMP180;9980;51.020;7.772;2023-07-13T06:49:51;97617.00;;;21.10
19666;BMP180;9980;51.020;7.772;2023-07-13T06:52:18;97615.00;;;21.20
19666;BMP180;9980;51.020;7.772;2023-07-13T06:54:45;97623.00;;;21.20
19666;BMP180;9980;51.020;7.772;2023-07-13T06:57:12;97620.00;;;21.30
19666;BMP180;9980;51.020;7.772;2023-07-13T06:59:39;97625.00;;;21.40
19666;BMP180;9980;51.020;7.772;2023-07-13T07:02:06;97622.00;;;21.40
19666;BMP180;9980;51.020;7.772;2023-07-13T07:04:34;97627.00;;;21.50
19666;BMP180;9980;51.020;7.772;2023-07-13T07:07:01;97612.00;;;21.60
19666;BMP180;9980;51.020;7.772;2023-07-13T07:09:28;97619.00;;;21.70
19666;BMP180;9980;51.020;7.772;2023-07-13T07:11:57;97623.00;;;21.80
19666;BMP180;9980;51.020;7.772;2023-07-13T07:14:30;97627.00;;;21.90
19666;BMP180;9980;51.020;7.772;2023-07-13T07:16:57;97628.00;;;21.90
19666;BMP180;9980;51.020;7.772;2023-07-13T07:19:29;97630.00;;;22.00
19666;BMP180;9980;51.020;7.772;2023-07-13T07:21:56;97616.00;;;22.00
19666;BMP180;9980;51.020;7.772;2023-07-13T07:24:23;97635.00;;;22.10
19666;BMP180;9980;51.020;7.772;2023-07-13T07:26:50;97613.00;;;22.20
19666;BMP180;9980;51.020;7.772;2023-07-13T07:29:20;97615.00;;;22.30
19666;BMP180;9980;51.020;7.772;2023-07-13T07:31:50;97631.00;;;22.40
19666;BMP180;9980;51.020;7.772;2023-07-13T07:34:31;97625.00;;;22.50
19666;BMP180;9980;51.020;7.772;2023-07-13T07:37:02;97642.00;;;22.60
19666;BMP180;9980;51.020;7.772;2023-07-13T07:39:33;97631.00;;;22.70
19666;BMP180;9980;51.020;7.772;2023-07-13T07:41:59;97629.00;;;22.80
19666;BMP180;9980;51.020;7.772;2023-07-13T07:44:27;97629.00;;;22.90
19666;BMP180;9980;51.020;7.772;2023-07-13T07:46:55;97642.00;;;23.00
19666;BMP180;9980;51.020;7.772;2023-07-13T07:49:22;97645.00;;;23.10
19666;BMP180;9980;51.020;7.772;2023-07-13T07:51:49;97645.00;;;23.20
19666;BMP180;9980;51.020;7.772;2023-07-13T07:54:17;97637.00;;;23.30
19666;BMP180;9980;51.020;7.772;2023-07-13T07:57:04;97639.00;;;23.30
19666;BMP180;9980;51.020;7.772;2023-07-13T07:59:34;97634.00;;;23.40
19666;BMP180;9980;51.020;7.772;2023-07-13T08:02:06;97626.00;;;23.40
19666;BMP180;9980;51.020;7.772;2023-07-13T08:04:53;97642.00;;;23.50
19666;BMP180;9980;51.020;7.772;2023-07-13T08:07:23;97636.00;;;23.50
19666;BMP180;9980;51.020;7.772;2023-07-13T08:09:53;97635.00;;;23.60
19666;BMP180;9980;51.020;7.772;2023-07-13T08:12:20;97641.00;;;23.60
19666;BMP180;9980;51.020;7.772;2023-07-13T08:14:50;97654.00;;;23.70
19666;BMP180;9980;51.020;7.772;2023-07-13T08:17:20;97649.00;;;23.70
19666;BMP180;9980;51.020;7.772;2023-07-13T08:19:47;97638.00;;;23.70
19666;BMP180;9980;51.020;7.772;2023-07-13T08:22:15;97644.00;;;23.80
19666;BMP180;9980;51.020;7.772;2023-07-13T08:24:42;97640.00;;;23.80
19666;BMP180;9980;51.020;7.772;2023-07-13T08:27:11;97634.00;;;23.90
19666;BMP180;9980;51.020;7.772;2023-07-13T08:29:39;97635.00;;;24.00
19666;BMP180;9980;51.020;7.772;2023-07-13T08:32:07;97639.00;;;24.10
19666;BMP180;9980;51.020;7.772;2023-07-13T08:34:36;97640.00;;;24.20
19666;BMP180;9980;51.020;7.772;2023-07-13T08:37:04;97640.00;;;24.20
19666;BMP180;9980;51.020;7.772;2023-07-13T08:39:32;97642.00;;;24.30
19666;BMP180;9980;51.020;7.772;2023-07-13T08:42:10;97639.00;;;24.30
19666;BMP180;9980;51.020;7.772;2023-07-13T08:47:33;97641.00;;;24.50
19666;BMP180;9980;51.020;7.772;2023-07-13T08:50:04;97638.00;;;24.60
19666;BMP180;9980;51.020;7.772;2023-07-13T08:52:37;97639.00;;;24.70
19666;BMP180;9980;51.020;7.772;2023-07-13T08:55:20;97636.00;;;24.80
19666;BMP180;9980;51.020;7.772;2023-07-13T08:58:00;97639.00;;;24.90
19666;BMP180;9980;51.020;7.772;2023-07-13T09:03:22;97655.00;;;25.10
19666;BMP180;9980;51.020;7.772;2023-07-13T09:05:58;97637.00;;;25.20
19666;BMP180;9980;51.020;7.772;2023-07-13T09:11:49;97644.00;;;25.30
19666;BMP180;9980;51.020;7.772;2023-07-13T09:14:42;97653.00;;;25.40
19666;BMP180;9980;51.020;7.772;2023-07-13T09:17:25;97642.00;;;25.50
19666;BMP180;9980;51.020;7.772;2023-07-13T09:20:02;97645.00;;;25.60
19666;BMP180;9980;51.020;7.772;2023-07-13T09:22:34;97657.00;;;25.70
19666;BMP180;9980;51.020;7.772;2023-07-13T09:25:29;97655.00;;;25.70
19666;BMP180;9980;51.020;7.772;2023-07-13T09:28:05;97645.00;;;25.80
19666;BMP180;9980;51.020;7.772;2023-07-13T09:33:30;97646.00;;;25.90
19666;BMP180;9980;51.020;7.772;2023-07-13T09:35:58;97648.00;;;25.90
19666;BMP180;9980;51.020;7.772;2023-07-13T09:38:29;97651.00;;;25.90
19666;BMP180;9980;51.020;7.772;2023-07-13T09:44:13;97653.00;;;26.00
19666;BMP180;9980;51.020;7.772;2023-07-13T09:46:46;97656.00;;;26.10
19666;BMP180;9980;51.020;7.772;2023-07-13T09:49:14;97659.00;;;26.10
19666;BMP180;9980;51.020;7.772;2023-07-13T09:51:42;97650.00;;;26.20
19666;BMP180;9980;51.020;7.772;2023-07-13T09:54:24;97646.00;;;26.10
19666;BMP180;9980;51.020;7.772;2023-07-13T09:56:55;97650.00;;;26.20
19666;BMP180;9980;51.020;7.772;2023-07-13T09:59:30;97663.00;;;26.20
19666;BMP180;9980;51.020;7.772;2023-07-13T10:02:00;97647.00;;;26.30
19666;BMP180;9980;51.020;7.772;2023-07-13T10:04:32;97658.00;;;26.40
19666;BMP180;9980;51.020;7.772;2023-07-13T10:07:09;97662.00;;;26.60
19666;BMP180;9980;51.020;7.772;2023-07-13T10:09:59;97665.00;;;26.70
19666;BMP180;9980;51.020;7.772;2023-07-13T10:12:30;97672.00;;;26.80
19666;BMP180;9980;51.020;7.772;2023-07-13T10:15:02;97663.00;;;26.90
19666;BMP180;9980;51.020;7.772;2023-07-13T10:17:51;97660.00;;;26.90
19666;BMP180;9980;51.020;7.772;2023-07-13T10:20:21;97674.00;;;27.00
19666;BMP180;9980;51.020;7.772;2023-07-13T10:23:02;97674.00;;;26.90
19666;BMP180;9980;51.020;7.772;2023-07-13T10:25:35;97675.00;;;27.00
19666;BMP180;9980;51.020;7.772;2023-07-13T10:28:27;97682.00;;;26.90
19666;BMP180;9980;51.020;7.772;2023-07-13T10:30:59;97686.00;;;27.00
19666;BMP180;9980;51.020;7.772;2023-07-13T10:33:27;97674.00;;;27.00
19666;BMP180;9980;51.020;7.772;2023-07-13T10:39:03;97671.00;;;27.10
19666;BMP180;9980;51.020;7.772;2023-07-13T10:41:38;97672.00;;;27.10
19666;BMP180;9980;51.020;7.772;2023-07-13T10:44:18;97668.00;;;27.10
19666;BMP180;9980;51.020;7.772;2023-07-13T10:46:48;97683.00;;;27.20
19666;BMP180;9980;51.020;7.772;2023-07-13T10:49:17;97678.00;;;27.20
19666;BMP180;9980;51.020;7.772;2023-07-13T10:51:45;97678.00;;;27.20
19666;BMP180;9980;51.020;7.772;2023-07-13T10:54:30;97665.00;;;27.20
19666;BMP180;9980;51.020;7.772;2023-07-13T10:57:19;97684.00;;;27.20
19666;BMP180;9980;51.020;7.772;2023-07-13T11:00:15;97690.00;;;27.30
19666;BMP180;9980;51.020;7.772;2023-07-13T11:02:43;97687.00;;;27.40
19666;BMP180;9980;51.020;7.772;2023-07-13T11:05:29;97686.00;;;27.40
19666;BMP180;9980;51.020;7.772;2023-07-13T11:08:32;97674.00;;;27.50
19666;BMP180;9980;51.020;7.772;2023-07-13T11:10:59;97682.00;;;27.60
19666;BMP180;9980;51.020;7.772;2023-07-13T11:18:48;97684.00;;;27.70
19666;BMP180;9980;51.020;7.772;2023-07-13T11:21:26;97691.00;;;27.70
19666;BMP180;9980;51.020;7.772;2023-07-13T11:24:18;97690.00;;;27.70
19666;BMP180;9980;51.020;7.772;2023-07-13T11:31:53;97687.00;;;27.80
19666;BMP180;9980;51.020;7.772;2023-07-13T11:34:38;97693.00;;;27.70
19666;BMP180;9980;51.020;7.772;2023-07-13T11:37:14;97693.00;;;27.70
19666;BMP180;9980;51.020;7.772;2023-07-13T11:39:46;97713.00;;;27.70
19666;BMP180;9980;51.020;7.772;2023-07-13T11:42:17;97698.00;;;27.70
19666;BMP180;9980;51.020;7.772;2023-07-13T11:44:49;97700.00;;;27.70
19666;BMP180;9980;51.020;7.772;2023-07-13T11:47:40;97696.00;;;27.60
19666;BMP180;9980;51.020;7.772;2023-07-13T11:50:23;97708.00;;;27.60
19666;BMP180;9980;51.020;7.772;2023-07-13T11:52:54;97704.00;;;27.70
19666;BMP180;9980;51.020;7.772;2023-07-13T11:55:23;97701.00;;;27.70
19666;BMP180;9980;51.020;7.772;2023-07-13T11:57:57;97704.00;;;27.70
19666;BMP180;9980;51.020;7.772;2023-07-13T12:00:31;97699.00;;;27.70
19666;BMP180;9980;51.020;7.772;2023-07-13T12:03:03;97699.00;;;27.70
19666;BMP180;9980;51.020;7.772;2023-07-13T12:05:32;97692.00;;;27.70
19666;BMP180;9980;51.020;7.772;2023-07-13T12:08:08;97684.00;;;27.70
19666;BMP180;9980;51.020;7.772;2023-07-13T12:10:37;97683.00;;;27.70
19666;BMP180;9980;51.020;7.772;2023-07-13T12:13:07;97675.00;;;27.80
19666;BMP180;9980;51.020;7.772;2023-07-13T12:15:38;97690.00;;;27.80
19666;BMP180;9980;51.020;7.772;2023-07-13T12:18:19;97689.00;;;27.90
19666;BMP180;9980;51.020;7.772;2023-07-13T12:20:49;97688.00;;;27.90
19666;BMP180;9980;51.020;7.772;2023-07-13T12:23:23;97688.00;;;27.90
19666;BMP180;9980;51.020;7.772;2023-07-13T12:25:52;97688.00;;;27.90
19666;BMP180;9980;51.020;7.772;2023-07-13T12:28:34;97686.00;;;27.90
19666;BMP180;9980;51.020;7.772;2023-07-13T12:31:05;97681.00;;;28.00
19666;BMP180;9980;51.020;7.772;2023-07-13T12:33:34;97703.00;;;28.10
19666;BMP180;9980;51.020;7.772;2023-07-13T12:36:03;97695.00;;;28.10
19666;BMP180;9980;51.020;7.772;2023-07-13T12:38:38;97709.00;;;28.10
19666;BMP180;9980;51.020;7.772;2023-07-13T12:41:09;97699.00;;;28.00
19666;BMP180;9980;51.020;7.772;2023-07-13T12:43:37;97700.00;;;28.00
19666;BMP180;9980;51.020;7.772;2023-07-13T12:46:20;97720.00;;;28.00
19666;BMP180;9980;51.020;7.772;2023-07-13T12:48:53;97703.00;;;28.00
19666;BMP180;9980;51.020;7.772;2023-07-13T12:51:40;97715.00;;;28.10
19666;BMP180;9980;51.020;7.772;2023-07-13T12:54:17;97719.00;;;28.10
19666;BMP180;9980;51.020;7.772;2023-07-13T12:59:53;97713.00;;;28.30
19666;BMP180;9980;51.020;7.772;2023-07-13T13:02:33;97704.00;;;28.30
19666;BMP180;9980;51.020;7.772;2023-07-13T13:05:02;97721.00;;;28.40
19666;BMP180;9980;51.020;7.772;2023-07-13T13:07:31;97714.00;;;28.40
19666;BMP180;9980;51.020;7.772;2023-07-13T13:09:59;97718.00;;;28.30
19666;BMP180;9980;51.020;7.772;2023-07-13T13:12:26;97699.00;;;28.30
19666;BMP180;9980;51.020;7.772;2023-07-13T13:14:53;97709.00;;;28.30
19666;BMP180;9980;51.020;7.772;2023-07-13T13:17:29;97706.00;;;28.30
19666;BMP180;9980;51.020;7.772;2023-07-13T13:19:57;97719.00;;;28.40
19666;BMP180;9980;51.020;7.772;2023-07-13T13:22:24;97723.00;;;28.40
19666;BMP180;9980;51.020;7.772;2023-07-13T13:24:51;97717.00;;;28.40
19666;BMP180;9980;51.020;7.772;2023-07-13T13:27:21;97720.00;;;28.40
19666;BMP180;9980;51.020;7.772;2023-07-13T13:29:50;97720.00;;;28.50
19666;BMP180;9980;51.020;7.772;2023-07-13T13:32:18;97718.00;;;28.60
19666;BMP180;9980;51.020;7.772;2023-07-13T13:34:45;97723.00;;;28.60
19666;BMP180;9980;51.020;7.772;2023-07-13T13:37:22;97713.00;;;28.60
19666;BMP180;9980;51.020;7.772;2023-07-13T13:39:52;97713.00;;;28.70
19666;BMP180;9980;51.020;7.772;2023-07-13T13:42:34;97717.00;;;28.80
19666;BMP180;9980;51.020;7.772;2023-07-13T13:45:01;97707.00;;;28.80
19666;BMP180;9980;51.020;7.772;2023-07-13T13:47:33;97724.00;;;28.80
19666;BMP180;9980;51.020;7.772;2023-07-13T13:50:12;97722.00;;;28.80
19666;BMP180;9980;51.020;7.772;2023-07-13T13:52:40;97721.00;;;28.80
19666;BMP180;9980;51.020;7.772;2023-07-13T13:55:19;97720.00;;;28.80
19666;BMP180;9980;51.020;7.772;2023-07-13T13:57:47;97720.00;;;28.80
19666;BMP180;9980;51.020;7.772;2023-07-13T14:00:16;97729.00;;;28.80
19666;BMP180;9980;51.020;7.772;2023-07-13T14:02:48;97720.00;;;28.80
19666;BMP180;9980;51.020;7.772;2023-07-13T14:05:24;97712.00;;;28.80
19666;BMP180;9980;51.020;7.772;2023-07-13T14:07:56;97714.00;;;28.80
19666;BMP180;9980;51.020;7.772;2023-07-13T14:10:27;97712.00;;;28.80
19666;BMP180;9980;51.020;7.772;2023-07-13T14:12:56;97715.00;;;28.80
19666;BMP180;9980;51.020;7.772;2023-07-13T14:15:28;97717.00;;;28.80
19666;BMP180;9980;51.020;7.772;2023-07-13T14:17:57;97718.00;;;28.90
19666;BMP180;9980;51.020;7.772;2023-07-13T14:20:25;97717.00;;;29.00
19666;BMP180;9980;51.020;7.772;2023-07-13T14:22:54;97716.00;;;29.00
19666;BMP180;9980;51.020;7.772;2023-07-13T14:25:22;97710.00;;;29.10
19666;BMP180;9980;51.020;7.772;2023-07-13T14:27:56;97722.00;;;29.20
19666;BMP180;9980;51.020;7.772;2023-07-13T14:30:26;97707.00;;;29.30
19666;BMP180;9980;51.020;7.772;2023-07-13T14:32:53;97709.00;;;29.30
19666;BMP180;9980;51.020;7.772;2023-07-13T14:35:22;97718.00;;;29.30
19666;BMP180;9980;51.020;7.772;2023-07-13T14:37:50;97703.00;;;29.40
19666;BMP180;9980;51.020;7.772;2023-07-13T14:40:30;97704.00;;;29.40
19666;BMP180;9980;51.020;7.772;2023-07-13T14:42:58;97697.00;;;29.50
19666;BMP180;9980;51.020;7.772;2023-07-13T14:45:26;97701.00;;;29.60
19666;BMP180;9980;51.020;7.772;2023-07-13T14:47:53;97703.00;;;29.60
19666;BMP180;9980;51.020;7.772;2023-07-13T14:50:29;97699.00;;;29.70
19666;BMP180;9980;51.020;7.772;2023-07-13T14:52:56;97707.00;;;29.80
19666;BMP180;9980;51.020;7.772;2023-07-13T14:55:23;97697.00;;;29.80
19666;BMP180;9980;51.020;7.772;2023-07-13T14:57:53;97691.00;;;29.80
19666;BMP180;9980;51.020;7.772;2023-07-13T15:00:21;97701.00;;;29.90
19666;BMP180;9980;51.020;7.772;2023-07-13T15:02:56;97698.00;;;29.80
19666;BMP180;9980;51.020;7.772;2023-07-13T15:05:28;97703.00;;;29.90
19666;BMP180;9980;51.020;7.772;2023-07-13T15:08:02;97688.00;;;29.90
19666;BMP180;9980;51.020;7.772;2023-07-13T15:10:33;97689.00;;;29.90
19666;BMP180;9980;51.020;7.772;2023-07-13T15:13:21;97695.00;;;29.80
19666;BMP180;9980;51.020;7.772;2023-07-13T15:15:52;97695.00;;;29.90